Time;durP1;ratioP1;P1;durP2;ratioP2;P2;SDS_P1;SDS_P2;PMS_P1;PMS_P2;Temp;Humidity;BMP_temperature;BMP_pressure;BME280_temperature;BME280_humidity;BME280_pressure;Samples;Min_cycle;Max_cycle;Signal;HPM_P1;HPM_P2
2022/06/30 00:00:42;;;;;;;7.28;6.43;;;;;;;28.07;35.65;100743.88;5057269;28;20686;-85
2022/06/30 00:03:09;;;;;;;7.53;6.75;;;;;;;28.05;35.61;100741.28;5046852;28;20072;-85
2022/06/30 00:05:36;;;;;;;8.02;7.22;;;;;;;28.01;35.94;100738.06;5065033;28;20089;-86
2022/06/30 00:08:03;;;;;;;7.97;7.03;;;;;;;27.99;36.02;100740.25;5047049;28;20064;-85
2022/06/30 00:10:32;;;;;;;7.13;6.43;;;;;;;27.97;35.70;100733.16;5049943;28;20048;-85
2022/06/30 00:12:59;;;;;;;7.97;6.72;;;;;;;27.93;36.08;100731.84;5047040;28;20044;-85
2022/06/30 00:15:35;;;;;;;7.75;6.85;;;;;;;27.93;36.25;100732.72;5045400;28;20049;-85
2022/06/30 00:18:02;;;;;;;7.78;6.90;;;;;;;27.86;36.14;100734.69;5051938;28;20049;-85
2022/06/30 00:20:31;;;;;;;7.05;6.35;;;;;;;27.84;36.33;100725.66;5066618;28;20067;-86
2022/06/30 00:23:07;;;;;;;8.60;6.78;;;;;;;27.82;36.18;100727.84;5053208;28;20052;-85
2022/06/30 00:25:35;;;;;;;8.60;6.63;;;;;;;27.79;36.56;100719.88;5053754;28;20045;-85
2022/06/30 00:28:01;;;;;;;6.90;6.20;;;;;;;27.76;36.46;100711.94;5043752;28;20141;-85
2022/06/30 00:30:28;;;;;;;7.45;6.55;;;;;;;27.76;36.42;100716.66;5057012;28;20123;-85
2022/06/30 00:32:58;;;;;;;7.32;6.57;;;;;;;27.73;36.40;100708.75;5048023;28;20106;-85
2022/06/30 00:35:24;;;;;;;7.93;7.00;;;;;;;27.70;36.49;100703.59;5041539;28;20474;-85
2022/06/30 00:37:54;;;;;;;7.90;7.10;;;;;;;27.71;37.10;100706.16;5049897;28;20400;-85
2022/06/30 00:40:24;;;;;;;7.55;6.72;;;;;;;27.69;37.00;100707.44;5048482;28;20077;-85
2022/06/30 00:42:55;;;;;;;8.80;7.18;;;;;;;27.61;36.78;100703.81;5050918;28;20041;-85
2022/06/30 00:45:28;;;;;;;8.07;7.03;;;;;;;27.59;36.74;100702.34;5050996;28;20042;-85
2022/06/30 00:48:02;;;;;;;8.45;7.38;;;;;;;27.55;37.16;100709.41;5049350;28;20052;-85
2022/06/30 00:50:43;;;;;;;7.72;6.78;;;;;;;27.54;37.14;100705.78;5049343;28;20052;-85
2022/06/30 00:53:13;;;;;;;9.38;6.80;;;;;;;27.53;37.42;100705.94;5042977;28;20041;-85
2022/06/30 00:55:47;;;;;;;7.53;6.72;;;;;;;27.51;37.25;100705.28;5051972;28;20124;-85
2022/06/30 00:58:26;;;;;;;8.10;7.30;;;;;;;27.50;37.55;100703.63;5046558;28;20072;-85
2022/06/30 01:00:53;;;;;;;8.68;6.97;;;;;;;27.45;37.68;100703.38;5045706;28;20053;-85
2022/06/30 01:03:20;;;;;;;8.25;6.93;;;;;;;27.43;37.33;100698.00;5037800;28;20044;-85
2022/06/30 01:05:47;;;;;;;8.07;6.60;;;;;;;27.40;37.28;100701.25;5055551;28;20041;-85
2022/06/30 01:08:22;;;;;;;8.85;7.05;;;;;;;27.39;37.63;100696.75;5045585;28;20127;-84
2022/06/30 01:13:36;;;;;;;9.27;7.05;;;;;;;27.36;37.79;100696.31;5049693;28;20388;-85
2022/06/30 01:16:09;;;;;;;7.72;6.82;;;;;;;27.34;37.92;100693.75;5053977;28;20068;-86
2022/06/30 01:18:36;;;;;;;7.85;7.03;;;;;;;27.30;37.56;100689.69;5049142;28;20487;-84
2022/06/30 01:21:21;;;;;;;8.38;7.40;;;;;;;27.33;38.25;100696.75;5054219;28;20048;-86
2022/06/30 01:23:48;;;;;;;8.20;6.95;;;;;;;27.25;37.53;100693.13;5047612;28;20056;-86
2022/06/30 01:26:14;;;;;;;7.97;7.15;;;;;;;27.24;37.59;100694.19;5056476;28;20056;-85
2022/06/30 01:28:44;;;;;;;8.32;7.47;;;;;;;27.26;37.83;100699.56;5050581;28;20069;-85
2022/06/30 01:31:10;;;;;;;8.10;7.07;;;;;;;27.19;37.76;100696.75;5055386;28;20122;-85
2022/06/30 01:33:40;;;;;;;9.60;7.65;;;;;;;27.21;37.95;100702.13;5042438;28;20484;-84
2022/06/30 01:36:08;;;;;;;8.23;7.40;;;;;;;27.16;37.97;100700.00;5051896;28;20041;-85
2022/06/30 01:38:36;;;;;;;8.27;7.45;;;;;;;27.16;38.11;100704.69;5051711;28;20505;-84
2022/06/30 01:41:05;;;;;;;8.68;7.78;;;;;;;27.14;37.98;100704.06;5056214;28;20128;-84
2022/06/30 01:43:31;;;;;;;8.73;7.40;;;;;;;27.12;37.89;100698.69;5057537;28;20140;-84
2022/06/30 01:45:58;;;;;;;9.85;7.45;;;;;;;27.11;37.86;100688.59;5043597;28;20057;-84
2022/06/30 01:48:32;;;;;;;7.95;7.10;;;;;;;27.11;38.15;100688.59;5051579;28;20053;-85
2022/06/30 01:51:01;;;;;;;8.55;7.55;;;;;;;27.09;37.90;100690.78;5058245;28;20045;-84
2022/06/30 01:53:29;;;;;;;8.10;7.30;;;;;;;27.10;38.39;100683.25;5037442;28;20056;-84
2022/06/30 01:55:59;;;;;;;8.60;7.80;;;;;;;27.10;38.29;100689.66;5051641;28;20099;-85
2022/06/30 01:58:28;;;;;;;8.68;7.35;;;;;;;27.07;38.46;100690.13;5066917;28;20048;-85
2022/06/30 02:00:59;;;;;;;8.18;7.35;;;;;;;27.06;38.35;100687.53;5044824;28;20069;-84
2022/06/30 02:03:37;;;;;;;9.48;7.15;;;;;;;27.06;38.03;100687.53;5014446;28;20585;-85
2022/06/30 02:06:06;;;;;;;7.93;7.13;;;;;;;27.05;38.42;100691.41;5046833;28;20064;-84
2022/06/30 02:08:33;;;;;;;8.05;7.25;;;;;;;27.05;38.32;100689.47;5044954;28;20080;-85
2022/06/30 02:11:02;;;;;;;8.23;7.43;;;;;;;27.04;38.51;100696.09;5065886;28;20498;-85
2022/06/30 02:13:29;;;;;;;8.02;7.22;;;;;;;27.04;38.20;100704.47;5058521;28;20072;-85
2022/06/30 02:15:56;;;;;;;8.18;7.28;;;;;;;27.04;38.65;100700.81;5046542;28;20064;-84
2022/06/30 02:18:26;;;;;;;8.77;7.07;;;;;;;27.03;38.25;100707.47;5048745;28;20074;-85
2022/06/30 02:20:52;;;;;;;7.30;6.60;;;;;;;27.02;38.49;100706.59;5059187;28;20069;-84
2022/06/30 02:23:22;;;;;;;8.55;6.90;;;;;;;27.05;38.54;100708.97;5056388;28;20048;-85
2022/06/30 02:25:53;;;;;;;8.55;6.97;;;;;;;27.00;38.71;100714.34;5057781;28;20483;-85
2022/06/30 02:28:39;;;;;;;8.20;7.00;;;;;;;27.00;38.67;100707.91;5024470;28;20055;-84
2022/06/30 02:31:12;;;;;;;7.97;7.18;;;;;;;27.02;39.07;100711.31;5043997;28;20049;-85
2022/06/30 02:33:40;;;;;;;8.45;7.03;;;;;;;26.98;38.85;100722.06;5058117;28;20511;-85
2022/06/30 02:36:07;;;;;;;8.57;7.63;;;;;;;26.98;38.70;100715.63;5049972;28;20136;-84
2022/06/30 02:38:34;;;;;;;8.43;7.28;;;;;;;26.97;38.87;100722.25;5049864;28;20056;-84
2022/06/30 02:41:01;;;;;;;8.30;7.30;;;;;;;26.95;38.95;100719.69;5047080;28;20045;-84
2022/06/30 02:43:31;;;;;;;8.93;7.90;;;;;;;26.95;38.92;100718.81;5051500;28;20067;-84
2022/06/30 02:45:58;;;;;;;8.27;7.47;;;;;;;26.93;38.92;100720.97;5048471;28;20098;-85
2022/06/30 02:48:32;;;;;;;8.85;7.70;;;;;;;26.92;38.77;100722.06;5051465;28;20048;-85
2022/06/30 02:50:59;;;;;;;8.70;7.80;;;;;;;26.86;38.72;100713.41;5038218;28;20046;-85
2022/06/30 02:53:28;;;;;;;9.32;7.68;;;;;;;26.89;39.15;100715.78;5033480;28;20045;-84
2022/06/30 02:55:55;;;;;;;8.57;7.63;;;;;;;26.85;39.08;100706.13;5041333;28;20048;-85
2022/06/30 02:58:25;;;;;;;8.73;7.68;;;;;;;26.83;38.82;100708.28;5048209;28;20048;-85
2022/06/30 03:00:53;;;;;;;9.52;7.53;;;;;;;26.82;39.15;100705.72;5047038;28;20049;-84
2022/06/30 03:03:27;;;;;;;8.40;7.22;;;;;;;26.82;39.40;100702.91;5038526;28;20049;-85
2022/06/30 03:06:04;;;;;;;8.82;7.93;;;;;;;26.78;39.24;100707.19;5043892;28;20059;-84
2022/06/30 03:08:37;;;;;;;8.70;7.47;;;;;;;26.76;39.26;100709.34;5051648;28;20049;-84
2022/06/30 03:11:05;;;;;;;8.77;7.65;;;;;;;26.76;39.31;100703.78;5054495;28;20044;-85
2022/06/30 03:13:32;;;;;;;8.30;7.38;;;;;;;26.74;39.34;100708.69;5051794;28;20049;-85
2022/06/30 03:16:02;;;;;;;8.55;7.55;;;;;;;26.72;39.52;100713.63;5049796;28;20045;-85
2022/06/30 03:18:29;;;;;;;8.15;7.35;;;;;;;26.71;39.33;100709.09;5049311;28;20048;-84
2022/06/30 03:21:01;;;;;;;8.75;7.43;;;;;;;26.71;39.56;100707.19;5049010;28;20122;-84
2022/06/30 03:23:31;;;;;;;8.23;7.13;;;;;;;26.67;39.75;100711.47;5042181;28;20060;-84
2022/06/30 03:26:07;;;;;;;8.52;7.50;;;;;;;26.66;40.02;100708.91;5048925;28;20135;-84
2022/06/30 03:28:37;;;;;;;7.82;7.03;;;;;;;26.59;39.40;100706.09;5036635;28;20143;-84
2022/06/30 03:31:06;;;;;;;8.38;7.32;;;;;;;26.57;39.56;100705.44;5050215;28;20476;-84
2022/06/30 03:33:46;;;;;;;8.43;7.32;;;;;;;26.57;39.62;100708.22;5049090;28;20086;-84
2022/06/30 03:36:16;;;;;;;8.55;7.65;;;;;;;26.50;39.66;100712.94;5049280;28;20056;-85
2022/06/30 03:38:46;;;;;;;8.60;7.28;;;;;;;26.49;39.73;100714.84;5045845;28;20049;-85
2022/06/30 03:41:16;;;;;;;7.97;6.75;;;;;;;26.50;40.20;100716.56;5053393;28;20074;-85
2022/06/30 03:43:43;;;;;;;10.20;7.30;;;;;;;26.46;39.86;100711.63;5052199;28;20048;-85
2022/06/30 03:46:09;;;;;;;8.07;7.15;;;;;;;26.44;39.79;100706.25;5048849;28;20526;-85
2022/06/30 03:48:41;;;;;;;8.95;6.93;;;;;;;26.44;39.95;100706.25;5036795;28;20106;-85
2022/06/30 03:51:12;;;;;;;8.55;6.93;;;;;;;26.43;40.31;100701.78;5048866;28;20407;-85
2022/06/30 03:53:43;;;;;;;8.27;7.00;;;;;;;26.44;40.27;100705.38;5045745;28;20072;-85
2022/06/30 03:56:11;;;;;;;9.77;6.97;;;;;;;26.42;40.22;100707.53;5052005;28;20045;-85
2022/06/30 03:58:38;;;;;;;9.05;7.07;;;;;;;26.44;40.22;100703.47;5038446;28;20091;-85
2022/06/30 04:01:07;;;;;;;8.50;7.38;;;;;;;26.46;40.08;100703.25;5054304;28;20480;-85
2022/06/30 04:03:36;;;;;;;7.97;7.18;;;;;;;26.45;40.26;100698.75;5046828;28;20139;-85
2022/06/30 04:06:03;;;;;;;7.70;6.90;;;;;;;26.45;40.28;100696.84;5047057;28;20056;-84
2022/06/30 04:08:29;;;;;;;8.73;7.38;;;;;;;26.46;40.26;100700.47;5048286;28;20102;-85
2022/06/30 04:10:56;;;;;;;8.50;7.40;;;;;;;26.45;40.27;100695.97;5057503;28;20052;-85
2022/06/30 04:13:25;;;;;;;9.15;7.18;;;;;;;26.47;40.43;100693.84;5037865;28;20041;-85
2022/06/30 04:15:55;;;;;;;10.05;7.45;;;;;;;26.44;40.34;100686.75;5047362;28;20067;-85
2022/06/30 04:18:22;;;;;;;9.52;7.40;;;;;;;26.45;40.46;100690.41;5049586;28;20098;-85
2022/06/30 04:20:54;;;;;;;8.00;7.00;;;;;;;26.45;40.39;100693.19;5055360;28;20048;-85
2022/06/30 04:23:21;;;;;;;8.30;7.13;;;;;;;26.43;40.46;100692.56;5060845;28;20082;-85
2022/06/30 04:25:47;;;;;;;8.38;7.40;;;;;;;26.43;40.78;100685.06;5056179;28;20385;-85
2022/06/30 04:28:14;;;;;;;10.63;7.70;;;;;;;26.42;40.32;100686.13;5056572;28;20461;-85
2022/06/30 04:33:27;;;;;;;8.45;7.22;;;;;;;26.38;40.60;100683.97;5049006;28;20052;-76
2022/06/30 04:35:53;;;;;;;9.00;7.20;;;;;;;26.38;40.77;100686.75;5049029;28;20044;-75
2022/06/30 04:38:20;;;;;;;8.70;7.45;;;;;;;26.36;40.90;100675.81;5051979;28;20135;-74
2022/06/30 04:43:32;;;;;;;9.27;7.97;;;;;;;26.35;41.17;100689.97;5049779;28;20049;-76
2022/06/30 04:45:58;;;;;;;8.93;7.75;;;;;;;26.36;40.99;100691.66;5049273;28;20132;-76
2022/06/30 04:48:25;;;;;;;8.93;8.02;;;;;;;26.35;40.97;100681.63;5048264;28;20049;-75
2022/06/30 04:50:51;;;;;;;9.50;7.82;;;;;;;26.35;40.86;100679.69;5051784;28;20080;-75
2022/06/30 04:53:18;;;;;;;8.55;7.65;;;;;;;26.35;41.26;100673.25;5050842;28;20045;-76
2022/06/30 04:55:45;;;;;;;10.60;7.90;;;;;;;26.34;41.34;100680.75;5053201;28;20211;-76
2022/06/30 04:58:11;;;;;;;9.13;8.20;;;;;;;26.35;41.25;100674.13;5049738;28;20562;-75
2022/06/30 05:00:38;;;;;;;9.07;8.18;;;;;;;26.36;41.56;100674.94;5049926;28;20048;-76
2022/06/30 05:03:04;;;;;;;8.48;7.43;;;;;;;26.36;41.18;100677.75;5051815;28;20106;-76
2022/06/30 05:05:31;;;;;;;9.15;7.55;;;;;;;26.37;41.54;100673.88;5050788;28;20088;-76
2022/06/30 05:07:58;;;;;;;9.85;8.20;;;;;;;26.38;41.25;100679.25;5047938;28;20677;-76
2022/06/30 05:10:25;;;;;;;8.95;8.02;;;;;;;26.42;41.81;100679.72;5044327;28;20099;-75
2022/06/30 05:12:52;;;;;;;9.02;8.02;;;;;;;26.45;42.15;100676.47;5049375;28;20132;-76
2022/06/30 05:15:18;;;;;;;8.95;8.05;;;;;;;26.50;42.14;100682.28;5051269;28;20041;-76
2022/06/30 05:17:45;;;;;;;9.63;8.63;;;;;;;26.56;42.18;100681.44;5048181;28;20049;-75
2022/06/30 05:20:12;;;;;;;9.98;8.57;;;;;;;26.64;41.77;100681.25;5045112;28;20479;-75
2022/06/30 05:22:39;;;;;;;10.88;8.48;;;;;;;26.72;42.01;100677.41;5047817;28;20130;-76
2022/06/30 05:27:51;;;;;;;8.75;7.78;;;;;;;26.90;42.21;100674.84;5049469;28;20045;-76
2022/06/30 05:30:18;;;;;;;9.18;8.07;;;;;;;27.05;42.18;100683.03;5050485;28;20505;-76
2022/06/30 05:32:45;;;;;;;8.90;7.95;;;;;;;27.17;41.81;100681.34;5047863;28;20102;-76
2022/06/30 05:35:12;;;;;;;9.80;7.70;;;;;;;27.29;42.09;100679.59;5051280;28;20057;-75
2022/06/30 05:37:39;;;;;;;8.68;7.65;;;;;;;27.41;41.79;100686.25;5047519;28;20056;-83
2022/06/30 05:40:06;;;;;;;9.02;7.80;;;;;;;27.56;41.88;100686.03;5046931;28;20053;-82
2022/06/30 05:42:33;;;;;;;8.23;7.40;;;;;;;27.68;41.79;100683.41;5043165;28;20048;-82
2022/06/30 05:45:00;;;;;;;8.30;7.50;;;;;;;27.82;41.71;100669.22;5050165;28;20072;-81
2022/06/30 05:47:26;;;;;;;8.85;7.90;;;;;;;27.97;41.41;100680.97;5050732;28;20076;-81
2022/06/30 05:49:53;;;;;;;8.55;7.55;;;;;;;28.13;41.48;100679.63;5041622;28;20087;-81
2022/06/30 05:52:20;;;;;;;8.75;7.47;;;;;;;28.28;41.05;100671.84;5039692;28;20076;-81
2022/06/30 05:54:47;;;;;;;10.18;7.45;;;;;;;28.45;41.08;100671.34;5053339;28;20053;-80
2022/06/30 05:57:13;;;;;;;9.05;7.50;;;;;;;28.62;40.72;100667.78;5022438;28;20124;-81
2022/06/30 05:59:40;;;;;;;7.47;6.75;;;;;;;28.79;40.55;100664.47;5048265;28;20056;-81
2022/06/30 06:02:07;;;;;;;8.15;7.35;;;;;;;28.94;40.28;100674.25;5055703;28;20496;-80
2022/06/30 06:04:34;;;;;;;8.32;7.47;;;;;;;29.09;39.97;100669.19;5074931;28;20415;-81
2022/06/30 06:07:03;;;;;;;8.07;7.28;;;;;;;29.23;39.49;100671.88;5061784;28;20102;-81
2022/06/30 06:09:30;;;;;;;8.55;7.65;;;;;;;29.38;39.22;100666.81;5062116;28;20053;-81
2022/06/30 06:11:57;;;;;;;9.23;6.95;;;;;;;29.50;39.14;100674.19;5054330;28;20526;-81
2022/06/30 06:14:23;;;;;;;7.50;6.80;;;;;;;29.62;38.81;100677.09;5067436;28;20048;-81
2022/06/30 06:16:50;;;;;;;8.05;6.55;;;;;;;29.74;38.61;100683.63;5052148;28;20476;-81
2022/06/30 06:19:16;;;;;;;7.68;6.32;;;;;;;29.86;38.08;100689.31;5063505;28;20172;-81
2022/06/30 06:21:48;;;;;;;7.57;6.53;;;;;;;29.95;38.42;100687.97;5055898;28;20140;-81
2022/06/30 06:24:16;;;;;;;7.78;6.97;;;;;;;30.10;38.18;100696.81;5052530;28;20531;-81
2022/06/30 06:26:44;;;;;;;7.43;6.55;;;;;;;30.21;38.06;100695.19;5058894;28;20060;-82
2022/06/30 06:29:11;;;;;;;8.20;7.38;;;;;;;30.33;37.50;100689.63;5049402;28;20059;-81
2022/06/30 06:31:39;;;;;;;8.32;6.97;;;;;;;30.45;37.31;100691.41;5063682;28;20120;-82
2022/06/30 06:34:07;;;;;;;7.82;6.95;;;;;;;30.52;37.43;100689.41;5067300;28;20492;-81
2022/06/30 06:36:34;;;;;;;7.15;6.28;;;;;;;30.62;37.15;100686.03;5055763;28;20044;-80
2022/06/30 06:39:00;;;;;;;7.85;6.88;;;;;;;30.72;36.92;100689.09;5053603;28;20101;-82
2022/06/30 06:41:28;;;;;;;8.52;7.35;;;;;;;30.83;36.50;100690.22;5050540;28;20114;-82
2022/06/30 06:43:54;;;;;;;7.97;6.80;;;;;;;30.92;36.21;100689.66;5045985;28;20098;-82
2022/06/30 06:46:26;;;;;;;7.82;6.43;;;;;;;31.02;36.37;100691.88;5064522;28;20507;-82
2022/06/30 06:49:06;;;;;;;7.65;6.68;;;;;;;31.14;35.48;100686.31;5063166;28;20048;-82
2022/06/30 06:51:34;;;;;;;7.03;6.32;;;;;;;31.19;35.75;100689.25;5054028;28;20055;-82
2022/06/30 06:54:01;;;;;;;6.80;6.10;;;;;;;31.26;35.90;100698.41;5055528;28;20515;-81
2022/06/30 06:56:28;;;;;;;7.90;5.75;;;;;;;31.33;35.34;100688.78;5065452;28;20122;-84
2022/06/30 06:58:59;;;;;;;7.45;5.93;;;;;;;31.42;35.44;100688.41;5069999;28;20501;-83
2022/06/30 07:01:26;;;;;;;7.40;5.97;;;;;;;31.53;35.44;100688.44;5066980;28;20059;-83
2022/06/30 07:03:53;;;;;;;6.72;6.03;;;;;;;31.62;34.88;100688.94;5054251;28;20454;-82
2022/06/30 07:06:21;;;;;;;7.20;5.60;;;;;;;31.74;34.83;100695.41;5050117;28;20123;-81
2022/06/30 07:08:47;;;;;;;7.43;5.45;;;;;;;31.84;35.30;100706.00;5063103;28;20054;-82
2022/06/30 07:11:14;;;;;;;7.47;5.70;;;;;;;31.93;34.61;100694.16;5043002;28;20076;-83
2022/06/30 07:13:45;;;;;;;6.20;5.60;;;;;;;32.08;34.10;100705.72;5046694;28;20056;-82
2022/06/30 07:16:13;;;;;;;6.82;5.47;;;;;;;32.17;34.29;100702.56;5048492;28;20045;-78
2022/06/30 07:18:40;;;;;;;7.30;5.85;;;;;;;32.27;34.28;100703.66;5053509;28;20064;-81
2022/06/30 07:21:07;;;;;;;6.40;5.75;;;;;;;32.37;33.51;100702.97;5053686;28;20156;-78
2022/06/30 07:23:33;;;;;;;6.07;5.40;;;;;;;32.45;33.25;100706.25;5059216;28;20052;-77
2022/06/30 07:26:00;;;;;;;5.88;5.20;;;;;;;32.55;33.03;100710.38;5042671;28;20610;-78
2022/06/30 07:28:27;;;;;;;6.60;4.88;;;;;;;32.61;32.93;100710.25;5042489;28;20119;-78
2022/06/30 07:31:14;;;;;;;6.60;4.63;;;;;;;32.67;32.61;100714.00;5040243;28;20051;-78
2022/06/30 07:33:44;;;;;;;5.15;4.30;;;;;;;32.74;32.31;100724.03;5043880;28;20045;-79
2022/06/30 07:36:12;;;;;;;5.90;4.45;;;;;;;32.79;32.06;100723.25;5040232;28;20476;-79
2022/06/30 07:38:40;;;;;;;5.18;4.20;;;;;;;32.83;32.28;100716.91;5057384;28;20135;-78
2022/06/30 07:41:07;;;;;;;4.78;4.07;;;;;;;32.88;31.89;100719.78;5045327;28;20076;-78
2022/06/30 07:43:33;;;;;;;5.18;3.90;;;;;;;32.93;31.55;100716.25;5047490;28;20080;-78
2022/06/30 07:46:00;;;;;;;6.22;3.90;;;;;;;32.99;30.79;100725.63;5040175;28;20479;-79
2022/06/30 07:48:27;;;;;;;5.28;3.85;;;;;;;33.03;30.97;100724.84;5043181;28;20161;-78
2022/06/30 07:50:53;;;;;;;5.05;3.85;;;;;;;33.08;30.87;100718.47;5040877;28;20503;-78
2022/06/30 07:53:21;;;;;;;4.53;3.70;;;;;;;33.15;30.57;100733.22;5034035;28;20041;-79
2022/06/30 07:55:48;;;;;;;5.25;3.80;;;;;;;33.19;31.14;100732.44;5040070;28;20056;-80
2022/06/30 07:58:14;;;;;;;4.70;3.67;;;;;;;33.25;30.58;100730.63;5049887;28;20076;-80
2022/06/30 08:00:41;;;;;;;5.35;4.18;;;;;;;33.32;30.32;100724.81;5045725;28;20084;-80
2022/06/30 08:03:08;;;;;;;4.70;4.20;;;;;;;33.37;30.31;100727.72;5045541;28;20037;-80
2022/06/30 08:05:35;;;;;;;6.05;4.60;;;;;;;33.43;30.55;100729.53;5049082;28;20048;-80
2022/06/30 08:08:02;;;;;;;6.93;4.78;;;;;;;33.49;30.18;100732.16;5041199;28;20553;-79
2022/06/30 08:10:28;;;;;;;6.47;4.78;;;;;;;33.56;29.88;100732.00;5054232;28;20446;-79
2022/06/30 08:12:55;;;;;;;5.47;4.40;;;;;;;33.61;29.86;100732.06;5054062;28;20045;-79
2022/06/30 08:15:22;;;;;;;6.28;4.40;;;;;;;33.67;29.89;100735.81;5067103;28;20132;-79
2022/06/30 08:17:48;;;;;;;5.40;4.50;;;;;;;33.72;29.54;100730.25;5051730;28;20051;-78
2022/06/30 08:20:15;;;;;;;5.10;4.00;;;;;;;33.78;29.55;100735.75;5067588;28;20129;-79
2022/06/30 08:22:42;;;;;;;6.47;4.18;;;;;;;33.84;29.91;100736.69;5060046;28;20131;-78
2022/06/30 08:25:11;;;;;;;5.53;4.20;;;;;;;33.89;29.55;100731.97;5051766;28;20071;-78
2022/06/30 08:27:38;;;;;;;5.40;4.05;;;;;;;33.94;29.22;100732.03;5063508;28;20124;-79
2022/06/30 08:30:05;;;;;;;4.68;3.80;;;;;;;34.01;28.90;100737.50;5054371;28;20078;-78
2022/06/30 08:32:31;;;;;;;4.85;3.33;;;;;;;34.07;28.88;100725.19;5046973;28;20076;-78
2022/06/30 08:34:59;;;;;;;5.20;3.70;;;;;;;34.13;28.24;100729.78;5061903;28;20115;-78
2022/06/30 08:37:25;;;;;;;4.80;3.70;;;;;;;34.20;28.23;100729.59;5054173;28;20100;-78
2022/06/30 08:42:40;;;;;;;4.78;3.35;;;;;;;34.32;28.12;100719.94;5042385;28;20539;-78
2022/06/30 08:45:17;;;;;;;4.10;3.20;;;;;;;34.34;28.26;100720.50;5068827;28;20502;-77
2022/06/30 08:47:46;;;;;;;4.90;3.15;;;;;;;34.43;27.85;100720.91;5055243;28;20628;-78
2022/06/30 08:50:14;;;;;;;4.65;3.17;;;;;;;34.50;28.18;100717.91;5068794;28;20379;-79
2022/06/30 08:52:45;;;;;;;4.80;3.30;;;;;;;34.57;27.59;100716.56;5058277;28;20051;-78
2022/06/30 08:55:14;;;;;;;4.32;3.10;;;;;;;34.59;27.54;100721.97;5069374;28;20470;-78
2022/06/30 08:57:43;;;;;;;5.70;3.60;;;;;;;34.66;27.03;100715.00;5060798;28;20048;-78
2022/06/30 09:00:12;;;;;;;4.78;3.50;;;;;;;34.72;27.31;100722.38;5067802;28;20131;-77
2022/06/30 09:02:39;;;;;;;4.47;3.40;;;;;;;34.75;26.51;100717.38;5048706;28;20071;-78
2022/06/30 09:05:07;;;;;;;4.13;2.85;;;;;;;34.80;27.00;100721.09;5071402;28;20049;-78
2022/06/30 09:07:37;;;;;;;5.32;3.13;;;;;;;34.86;26.14;100717.19;5033191;28;20529;-77
2022/06/30 09:10:06;;;;;;;4.60;3.15;;;;;;;34.89;26.37;100718.66;5062585;28;20049;-78
2022/06/30 09:12:33;;;;;;;3.72;2.70;;;;;;;34.91;26.08;100707.94;5055673;28;20106;-79
2022/06/30 09:15:00;;;;;;;4.47;2.80;;;;;;;34.95;26.04;100709.97;5055550;28;20524;-79
2022/06/30 09:17:29;;;;;;;5.05;2.92;;;;;;;35.00;25.99;100707.19;5053772;28;20248;-79
2022/06/30 09:20:10;;;;;;;3.88;2.60;;;;;;;35.06;25.32;100713.75;5044004;28;20048;-81
2022/06/30 09:22:41;;;;;;;3.63;2.53;;;;;;;35.10;25.40;100707.28;5046347;28;20056;-80
2022/06/30 09:25:15;;;;;;;3.65;2.13;;;;;;;35.13;25.07;100719.16;5047356;28;20132;-78
2022/06/30 09:27:44;;;;;;;4.72;2.70;;;;;;;35.18;25.07;100719.19;5048184;28;20041;-79
2022/06/30 09:30:19;;;;;;;5.10;2.45;;;;;;;35.24;24.77;100715.34;5046634;28;20127;-79
2022/06/30 09:33:05;;;;;;;4.10;2.55;;;;;;;35.23;24.69;100708.00;5047673;28;20128;-78
2022/06/30 09:35:32;;;;;;;5.82;2.83;;;;;;;35.30;25.45;100705.81;5046626;28;20110;-78
2022/06/30 09:38:04;;;;;;;5.95;2.97;;;;;;;35.38;24.14;100717.44;5053047;28;20277;-79
2022/06/30 09:40:34;;;;;;;6.57;3.00;;;;;;;35.42;24.60;100706.44;5053147;28;20102;-79
2022/06/30 09:43:02;;;;;;;4.95;2.95;;;;;;;35.44;24.42;100702.25;5046978;28;20048;-79
2022/06/30 09:45:35;;;;;;;4.60;2.45;;;;;;;35.52;24.04;100708.50;5049748;28;20134;-79
2022/06/30 09:48:03;;;;;;;4.53;2.78;;;;;;;35.52;24.07;100709.38;5058962;28;20477;-79
2022/06/30 09:50:30;;;;;;;5.18;2.50;;;;;;;35.57;24.44;100698.13;5046237;28;20041;-79
2022/06/30 09:53:13;;;;;;;5.32;2.70;;;;;;;35.63;23.66;100699.84;5045303;28;20594;-78
2022/06/30 09:55:47;;;;;;;3.65;2.58;;;;;;;35.67;22.92;100695.34;5047374;28;20053;-80
2022/06/30 09:58:17;;;;;;;4.05;2.70;;;;;;;35.69;23.98;100701.59;5040088;28;20128;-80
2022/06/30 10:00:53;;;;;;;6.80;2.65;;;;;;;35.74;23.74;100698.84;5054026;28;20191;-80
2022/06/30 10:11:10;;;;;;;4.25;2.33;;;;;;;35.81;23.74;100693.78;4908827;28;20062;-81
2022/06/30 10:13:39;;;;;;;3.22;2.20;;;;;;;35.89;23.23;100694.41;4980852;28;20506;-80
2022/06/30 10:16:07;;;;;;;4.35;2.40;;;;;;;35.92;23.79;100699.47;5054500;28;20454;-78
2022/06/30 10:18:39;;;;;;;4.82;2.78;;;;;;;35.96;23.04;100698.69;5050902;28;20056;-78
2022/06/30 10:21:08;;;;;;;;;;;;;;;35.67;24.17;100694.50;5047686;28;20062;-78
2022/06/30 10:23:35;;;;;;;4.40;2.30;;;;;;;35.96;23.95;100693.03;5052736;28;19921;-78
2022/06/30 10:26:06;;;;;;;5.78;2.58;;;;;;;36.04;23.80;100688.81;4994338;28;20479;-79
2022/06/30 10:28:33;;;;;;;4.70;2.65;;;;;;;36.07;23.29;100677.84;5051327;28;20052;-78
2022/06/30 10:31:15;;;;;;;3.92;2.45;;;;;;;36.16;23.01;100681.81;5044728;28;20556;-78
2022/06/30 10:34:01;;;;;;;4.25;2.60;;;;;;;36.16;23.07;100673.31;5050802;28;20048;-79
2022/06/30 10:37:02;;;;;;;4.53;2.30;;;;;;;36.20;23.00;100670.84;5048940;28;20558;-79
2022/06/30 10:39:56;;;;;;;3.22;2.30;;;;;;;36.20;23.56;100670.84;5044768;28;20052;-77
2022/06/30 10:42:42;;;;;;;5.10;2.20;;;;;;;36.23;22.71;100673.13;5049214;28;20060;-79
2022/06/30 10:45:30;;;;;;;4.07;2.25;;;;;;;36.25;22.83;100678.47;5064262;28;20045;-79
2022/06/30 10:48:07;;;;;;;4.00;2.47;;;;;;;36.28;23.62;100675.09;5041530;28;20139;-79
2022/06/30 10:50:39;;;;;;;4.40;2.20;;;;;;;36.33;23.03;100663.81;5045445;28;20061;-78
2022/06/30 10:53:09;;;;;;;;;;;;;;;36.03;23.71;100679.50;5041996;28;20044;-80
2022/06/30 10:55:55;;;;;;;3.10;1.92;;;;;;;36.32;23.23;100670.63;5048011;28;20330;-82
2022/06/30 10:58:22;;;;;;;3.65;2.20;;;;;;;36.35;23.43;100668.06;5037633;28;20057;-81
2022/06/30 11:01:00;;;;;;;3.25;2.25;;;;;;;36.41;23.30;100672.59;5046731;28;20057;-80
2022/06/30 11:03:31;;;;;;;4.55;2.05;;;;;;;36.42;22.68;100679.97;5033658;28;20045;-80
2022/06/30 11:06:01;;;;;;;3.38;2.33;;;;;;;36.41;23.25;100674.59;5045640;28;20060;-82
2022/06/30 11:08:39;;;;;;;4.28;2.30;;;;;;;36.43;22.89;100673.19;5045177;28;20427;-81
2022/06/30 11:11:36;;;;;;;3.20;2.13;;;;;;;36.37;23.11;100670.63;5060111;28;21317;-82
2022/06/30 11:14:02;;;;;;;5.78;2.30;;;;;;;36.40;23.17;100665.28;5021952;28;20044;-82
2022/06/30 11:16:37;;;;;;;6.05;2.42;;;;;;;36.47;22.79;100665.00;5057379;28;20053;-82
2022/06/30 11:19:15;;;;;;;3.80;2.30;;;;;;;36.50;23.15;100658.78;5064578;28;20044;-82
2022/06/30 11:21:45;;;;;;;3.70;2.00;;;;;;;36.51;22.66;100655.66;5069356;28;20052;-82
2022/06/30 11:24:15;;;;;;;3.88;2.20;;;;;;;36.54;22.82;100665.59;5035617;28;20033;-82
2022/06/30 11:29:29;;;;;;;3.80;2.17;;;;;;;36.55;22.83;100670.13;5061636;28;20166;-81
2022/06/30 11:32:00;;;;;;;4.70;2.50;;;;;;;36.61;22.37;100660.50;5067594;28;20503;-81
2022/06/30 11:34:28;;;;;;;3.00;2.22;;;;;;;36.56;22.83;100655.72;5063244;28;20128;-81
2022/06/30 11:36:55;;;;;;;4.43;2.45;;;;;;;36.60;22.24;100655.97;5064253;28;20055;-82
2022/06/30 11:39:22;;;;;;;3.30;2.20;;;;;;;36.60;22.72;100659.66;5056431;28;20048;-81
2022/06/30 11:41:56;;;;;;;3.90;2.20;;;;;;;36.63;22.18;100651.75;5053955;28;20056;-81
2022/06/30 11:44:32;;;;;;;4.82;2.38;;;;;;;36.64;21.64;100659.97;5062289;28;20040;-82
2022/06/30 11:47:02;;;;;;;4.30;2.20;;;;;;;36.61;22.43;100646.38;5048379;28;20059;-81
2022/06/30 11:49:44;;;;;;;3.72;2.15;;;;;;;36.64;22.27;100645.81;5063632;28;20423;-81
2022/06/30 11:52:15;;;;;;;2.90;2.20;;;;;;;36.56;22.00;100637.88;5052344;28;20131;-82
2022/06/30 11:55:00;;;;;;;4.10;2.25;;;;;;;36.60;22.17;100641.84;5065034;28;20053;-82
2022/06/30 11:57:32;;;;;;;3.63;2.28;;;;;;;36.59;21.88;100638.16;5069250;28;20118;-83
2022/06/30 12:00:11;;;;;;;4.20;2.38;;;;;;;36.56;22.07;100643.53;5044293;28;20049;-82
2022/06/30 12:02:39;;;;;;;3.90;2.13;;;;;;;36.53;22.22;100638.44;5066880;28;20056;-82